createdAt,value
2022-12-29T00:00:19.215Z,10.98
2022-12-29T00:02:46.433Z,10.63
2022-12-29T00:05:13.516Z,13.90
2022-12-29T00:07:40.793Z,13.80
2022-12-29T00:10:08.841Z,10.43
2022-12-29T00:12:54.339Z,17.27
2022-12-29T00:15:39.813Z,11.00
2022-12-29T00:18:08.336Z,10.93
2022-12-29T00:20:57.289Z,12.23
2022-12-29T00:23:43.518Z,13.93
2022-12-29T00:26:34.693Z,14.25
2022-12-29T00:29:20.188Z,11.48
2022-12-29T00:32:05.745Z,15.48
2022-12-29T00:34:51.295Z,12.27
2022-12-29T00:37:38.797Z,14.32
2022-12-29T00:40:24.911Z,10.88
2022-12-29T00:43:10.707Z,14.13
2022-12-29T00:45:37.610Z,14.23
2022-12-29T00:48:04.775Z,13.95
2022-12-29T00:50:32.064Z,13.27
2022-12-29T00:52:59.336Z,16.15
2022-12-29T00:55:26.227Z,14.95
2022-12-29T00:57:53.096Z,12.13
2022-12-29T01:00:20.291Z,15.48
2022-12-29T01:02:47.288Z,12.60
2022-12-29T01:05:14.329Z,13.93
2022-12-29T01:07:42.050Z,14.93
2022-12-29T01:10:12.284Z,16.08
2022-12-29T01:12:42.349Z,11.68
2022-12-29T01:15:12.183Z,14.48
2022-12-29T01:17:39.124Z,12.52
2022-12-29T01:20:07.413Z,15.38
2022-12-29T01:22:35.564Z,13.25
2022-12-29T01:25:07.834Z,16.62
2022-12-29T01:27:36.804Z,17.57
2022-12-29T01:30:04.457Z,13.30
2022-12-29T01:32:32.464Z,14.13
2022-12-29T01:34:59.969Z,14.23
2022-12-29T01:37:28.195Z,13.93
2022-12-29T01:39:55.323Z,12.52
2022-12-29T01:42:27.558Z,17.62
2022-12-29T01:44:59.472Z,15.95
2022-12-29T01:47:42.170Z,16.80
2022-12-29T01:50:19.283Z,12.00
2022-12-29T01:52:56.727Z,13.98
2022-12-29T01:55:24.763Z,17.58
2022-12-29T01:57:54.300Z,14.48
2022-12-29T02:00:21.351Z,13.10
2022-12-29T02:02:53.548Z,12.52
2022-12-29T02:05:30.329Z,15.65
2022-12-29T02:07:57.682Z,13.25
2022-12-29T02:10:28.023Z,14.07
2022-12-29T02:12:55.537Z,12.23
2022-12-29T02:15:45.811Z,14.27
2022-12-29T02:18:24.999Z,14.70
2022-12-29T02:21:19.833Z,13.85
2022-12-29T02:24:25.773Z,14.75
2022-12-29T02:27:46.683Z,16.55
2022-12-29T02:30:19.447Z,12.77
2022-12-29T02:33:01.251Z,12.93
2022-12-29T02:35:57.416Z,13.98
2022-12-29T02:38:51.765Z,16.50
2022-12-29T02:41:34.010Z,17.90
2022-12-29T02:44:05.447Z,13.65
2022-12-29T02:46:51.029Z,15.30
2022-12-29T02:49:28.935Z,16.33
2022-12-29T02:52:32.862Z,19.10
2022-12-29T02:55:00.594Z,13.80
2022-12-29T02:57:27.812Z,15.23
2022-12-29T02:59:59.763Z,16.12
2022-12-29T03:02:29.850Z,16.20
2022-12-29T03:05:24.274Z,14.80
2022-12-29T03:08:08.047Z,12.57
2022-12-29T03:10:57.111Z,15.82
2022-12-29T03:13:58.133Z,16.75
2022-12-29T03:16:48.357Z,18.73
2022-12-29T03:19:34.270Z,17.75
2022-12-29T03:22:28.583Z,15.10
2022-12-29T03:25:29.336Z,14.15
2022-12-29T03:28:12.681Z,14.87
2022-12-29T03:30:41.871Z,14.43
2022-12-29T03:33:16.048Z,15.00
2022-12-29T03:35:45.382Z,12.65
2022-12-29T03:38:29.021Z,15.23
2022-12-29T03:41:02.381Z,12.95
2022-12-29T03:43:30.768Z,14.60
2022-12-29T03:45:57.784Z,17.02
2022-12-29T03:48:25.689Z,17.05
2022-12-29T03:50:52.767Z,13.70
2022-12-29T03:53:19.722Z,17.23
2022-12-29T03:55:46.775Z,16.12
2022-12-29T03:58:13.939Z,14.77
2022-12-29T04:00:41.543Z,19.30
2022-12-29T04:03:08.644Z,16.45
2022-12-29T04:05:35.718Z,18.08
2022-12-29T04:08:02.883Z,20.15
2022-12-29T04:10:29.765Z,17.15
2022-12-29T04:12:56.750Z,15.85
2022-12-29T04:15:25.459Z,17.50
2022-12-29T04:17:52.413Z,14.07
2022-12-29T04:20:38.127Z,18.25
2022-12-29T04:23:07.615Z,18.35
2022-12-29T04:25:34.951Z,17.05
2022-12-29T04:28:01.956Z,15.02
2022-12-29T04:30:29.058Z,14.25
2022-12-29T04:32:56.020Z,13.68
2022-12-29T04:35:23.023Z,18.80
2022-12-29T04:37:49.983Z,16.02
2022-12-29T04:40:16.915Z,13.82
2022-12-29T04:42:43.885Z,14.18
2022-12-29T04:45:11.587Z,15.05
2022-12-29T04:47:38.720Z,16.10
2022-12-29T04:50:06.267Z,17.15
2022-12-29T04:52:33.247Z,16.85
2022-12-29T04:55:00.307Z,17.60
2022-12-29T04:57:28.162Z,19.15
2022-12-29T04:59:55.143Z,20.50
2022-12-29T05:02:22.766Z,22.80
2022-12-29T05:04:50.091Z,28.12
2022-12-29T05:07:17.060Z,25.88
2022-12-29T05:09:45.632Z,21.33
2022-12-29T05:12:12.572Z,23.50
2022-12-29T05:14:39.602Z,20.17
2022-12-29T05:17:06.530Z,21.00
2022-12-29T05:19:33.934Z,16.90
2022-12-29T05:22:00.855Z,18.08
2022-12-29T05:24:28.334Z,19.15
2022-12-29T05:26:55.221Z,15.27
2022-12-29T05:29:22.242Z,19.73
2022-12-29T05:31:49.185Z,20.15
2022-12-29T05:34:16.277Z,15.82
2022-12-29T05:36:43.179Z,16.62
2022-12-29T05:39:10.362Z,17.70
2022-12-29T05:41:37.506Z,18.17
2022-12-29T05:44:04.456Z,18.37
2022-12-29T05:46:31.504Z,13.82
2022-12-29T05:48:58.447Z,16.80
2022-12-29T05:51:25.725Z,16.75
2022-12-29T05:53:53.059Z,17.90
2022-12-29T05:56:21.286Z,17.08
2022-12-29T05:58:48.316Z,16.85
2022-12-29T06:01:15.364Z,15.27
2022-12-29T06:03:47.940Z,13.32
2022-12-29T06:06:15.637Z,18.15
2022-12-29T06:08:42.836Z,19.42
2022-12-29T06:11:10.219Z,24.17
2022-12-29T06:13:38.120Z,19.20
2022-12-29T06:16:06.192Z,24.60
2022-12-29T06:18:33.196Z,20.10
2022-12-29T06:21:04.977Z,19.12
2022-12-29T06:23:32.031Z,20.12
2022-12-29T06:25:58.939Z,23.17
2022-12-29T06:28:26.550Z,22.35
2022-12-29T06:30:53.555Z,30.12
2022-12-29T06:33:21.177Z,41.72
2022-12-29T06:35:48.370Z,43.42
2022-12-29T06:38:15.431Z,45.10
2022-12-29T06:40:44.367Z,36.83
2022-12-29T06:43:11.889Z,31.00
2022-12-29T06:45:41.645Z,25.05
2022-12-29T06:50:41.082Z,19.05
2022-12-29T06:53:08.186Z,18.20
2022-12-29T06:55:36.467Z,20.35
2022-12-29T06:58:05.245Z,20.02
2022-12-29T07:00:34.449Z,17.92
2022-12-29T07:03:02.280Z,16.30
2022-12-29T07:05:33.728Z,16.55
2022-12-29T07:08:01.209Z,15.73
2022-12-29T07:10:28.536Z,15.20
2022-12-29T07:12:55.694Z,15.55
2022-12-29T07:15:22.814Z,14.60
2022-12-29T07:17:50.898Z,17.85
2022-12-29T07:20:23.200Z,13.95
2022-12-29T07:22:53.505Z,18.10
2022-12-29T07:25:20.447Z,16.87
2022-12-29T07:27:47.510Z,13.77
2022-12-29T07:30:14.735Z,13.32
2022-12-29T07:32:42.048Z,11.80
2022-12-29T07:35:09.842Z,13.75
2022-12-29T07:37:36.839Z,18.20
2022-12-29T07:40:05.213Z,24.23
2022-12-29T07:42:34.774Z,15.85
2022-12-29T07:45:02.757Z,16.48
2022-12-29T07:47:29.717Z,18.37
2022-12-29T07:49:56.621Z,14.75
2022-12-29T07:52:23.526Z,21.02
2022-12-29T07:54:50.558Z,14.55
2022-12-29T07:57:18.292Z,15.30
2022-12-29T07:59:45.338Z,13.45
2022-12-29T08:02:13.578Z,17.23
2022-12-29T08:04:40.662Z,14.57
2022-12-29T08:07:07.629Z,15.20
2022-12-29T08:09:34.639Z,18.35
2022-12-29T08:12:01.660Z,16.60
2022-12-29T08:14:28.719Z,16.37
2022-12-29T08:16:55.673Z,16.42
2022-12-29T08:19:22.589Z,19.02
2022-12-29T08:21:49.667Z,16.20
2022-12-29T08:24:16.704Z,15.93
2022-12-29T08:26:43.689Z,24.37
2022-12-29T08:29:10.736Z,15.93
2022-12-29T08:31:38.018Z,17.08
2022-12-29T08:34:05.349Z,15.57
2022-12-29T08:36:32.712Z,16.05
2022-12-29T08:38:59.817Z,20.58
2022-12-29T08:41:27.217Z,15.20
2022-12-29T08:43:54.289Z,16.90
2022-12-29T08:46:21.382Z,16.83
2022-12-29T08:48:48.789Z,15.60
2022-12-29T08:51:19.096Z,16.42
2022-12-29T08:53:48.695Z,17.05
2022-12-29T08:56:16.360Z,17.30
2022-12-29T08:58:52.448Z,15.77
2022-12-29T09:01:19.909Z,13.15
2022-12-29T09:06:40.238Z,15.80
2022-12-29T09:09:08.874Z,16.45
2022-12-29T09:11:36.091Z,15.63
2022-12-29T09:14:03.213Z,22.58
2022-12-29T09:16:30.559Z,20.33
2022-12-29T09:18:57.787Z,16.90
2022-12-29T09:21:24.798Z,17.30
2022-12-29T09:23:52.101Z,17.45
2022-12-29T09:26:19.016Z,15.18
2022-12-29T09:28:45.980Z,16.83
2022-12-29T09:31:13.528Z,17.33
2022-12-29T09:33:40.646Z,18.55
2022-12-29T09:36:08.468Z,21.30
2022-12-29T09:38:35.989Z,19.70
2022-12-29T09:41:28.088Z,16.92
2022-12-29T09:44:08.915Z,16.87
2022-12-29T09:46:47.504Z,15.80
2022-12-29T09:49:29.187Z,17.42
2022-12-29T09:52:02.751Z,23.20
2022-12-29T09:54:38.647Z,15.52
2022-12-29T09:57:13.856Z,15.70
2022-12-29T09:59:43.829Z,15.95
2022-12-29T10:02:34.509Z,15.65
2022-12-29T10:05:01.545Z,15.05
2022-12-29T10:07:54.596Z,14.77
2022-12-29T10:13:18.210Z,15.40
2022-12-29T10:16:00.123Z,12.73
2022-12-29T10:18:51.461Z,15.95
2022-12-29T10:21:51.890Z,18.30
2022-12-29T10:24:25.374Z,15.35
2022-12-29T10:26:53.382Z,15.23
2022-12-29T10:29:27.943Z,16.08
2022-12-29T10:31:58.161Z,15.90
2022-12-29T10:34:34.837Z,15.70
2022-12-29T10:37:07.351Z,13.15
2022-12-29T10:39:42.211Z,11.82
2022-12-29T10:42:21.567Z,13.40
2022-12-29T10:44:50.746Z,14.23
2022-12-29T10:47:27.699Z,13.52
2022-12-29T10:49:55.601Z,18.23
2022-12-29T10:52:24.959Z,12.52
2022-12-29T10:55:00.991Z,11.88
2022-12-29T10:57:34.097Z,12.77
2022-12-29T11:00:03.231Z,15.63
2022-12-29T11:02:51.874Z,12.57
2022-12-29T11:05:42.654Z,15.93
2022-12-29T11:08:19.122Z,14.50
2022-12-29T11:10:47.574Z,11.70
2022-12-29T11:13:30.916Z,11.63
2022-12-29T11:16:06.006Z,13.30
2022-12-29T11:18:43.842Z,13.18
2022-12-29T11:21:29.721Z,14.73
2022-12-29T11:24:06.331Z,12.20
2022-12-29T11:26:35.237Z,13.13
2022-12-29T11:29:10.066Z,13.95
2022-12-29T11:31:58.790Z,11.77
2022-12-29T11:34:36.955Z,14.95
2022-12-29T11:37:13.676Z,13.15
2022-12-29T11:40:06.006Z,13.32
2022-12-29T11:42:43.876Z,11.63
2022-12-29T11:45:36.481Z,12.60
2022-12-29T11:48:19.553Z,12.00
2022-12-29T11:50:53.247Z,13.73
2022-12-29T11:53:27.046Z,11.25
2022-12-29T11:56:02.262Z,15.93
2022-12-29T11:58:39.919Z,11.23
2022-12-29T12:01:36.230Z,10.98
2022-12-29T12:04:09.389Z,10.30
2022-12-29T12:06:47.432Z,9.52
2022-12-29T12:09:29.643Z,10.35
2022-12-29T12:11:57.985Z,11.07
2022-12-29T12:14:39.887Z,10.30
2022-12-29T12:17:22.336Z,12.82
2022-12-29T12:20:02.244Z,10.70
2022-12-29T12:22:39.663Z,10.60
2022-12-29T12:25:17.815Z,12.10
2022-12-29T12:28:30.492Z,12.20
2022-12-29T12:31:03.352Z,11.02
2022-12-29T12:33:42.727Z,11.65
2022-12-29T12:36:37.631Z,12.02
2022-12-29T12:39:20.876Z,13.73
2022-12-29T12:42:15.968Z,12.18
2022-12-29T12:44:49.437Z,10.55
2022-12-29T12:47:29.701Z,10.57
2022-12-29T12:50:26.307Z,10.27
2022-12-29T12:53:17.123Z,8.98
2022-12-29T12:55:52.715Z,11.35
2022-12-29T12:58:31.749Z,10.93
2022-12-29T13:01:11.566Z,11.07
2022-12-29T13:03:54.155Z,10.48
2022-12-29T13:06:33.350Z,13.68
2022-12-29T13:09:42.453Z,13.38
2022-12-29T13:12:36.949Z,7.75
2022-12-29T13:15:45.503Z,10.63
2022-12-29T13:18:43.259Z,9.93
2022-12-29T13:21:19.339Z,12.10
2022-12-29T13:23:46.223Z,10.48
2022-12-29T13:26:40.443Z,12.18
2022-12-29T13:29:29.244Z,11.07
2022-12-29T13:32:05.144Z,12.10
2022-12-29T13:34:43.545Z,11.40
2022-12-29T13:37:15.908Z,10.75
2022-12-29T13:39:49.256Z,10.77
2022-12-29T13:42:20.117Z,11.25
2022-12-29T13:44:54.015Z,12.80
2022-12-29T13:47:34.920Z,10.77
2022-12-29T13:50:05.006Z,13.82
2022-12-29T13:52:45.425Z,12.43
2022-12-29T13:55:44.314Z,13.68
2022-12-29T13:58:32.243Z,12.00
2022-12-29T14:01:09.723Z,11.88
2022-12-29T14:03:52.927Z,13.23
2022-12-29T14:06:20.056Z,11.52
2022-12-29T14:08:49.324Z,14.15
2022-12-29T14:11:24.131Z,15.63
2022-12-29T14:13:51.265Z,19.80
2022-12-29T14:16:31.717Z,22.33
2022-12-29T14:19:11.435Z,22.15
2022-12-29T14:24:27.726Z,21.48
2022-12-29T14:26:54.923Z,14.93
2022-12-29T14:29:24.766Z,15.55
2022-12-29T14:31:53.327Z,14.13
2022-12-29T14:34:23.374Z,18.40
2022-12-29T14:37:03.562Z,19.20
2022-12-29T14:39:42.723Z,15.45
2022-12-29T14:42:13.672Z,17.12
2022-12-29T14:44:59.913Z,19.75
2022-12-29T14:47:35.127Z,19.00
2022-12-29T14:50:39.563Z,17.85
2022-12-29T14:53:07.990Z,22.27
2022-12-29T14:56:11.391Z,23.25
2022-12-29T14:58:53.275Z,17.85
2022-12-29T15:01:50.333Z,16.80
2022-12-29T15:04:26.377Z,21.27
2022-12-29T15:06:54.997Z,26.52
2022-12-29T15:09:39.201Z,22.23
2022-12-29T15:12:44.079Z,24.67
2022-12-29T15:15:23.792Z,21.42
2022-12-29T15:17:50.828Z,22.95
2022-12-29T15:20:17.899Z,24.85
2022-12-29T15:22:46.564Z,24.08
2022-12-29T15:25:17.424Z,30.95
2022-12-29T15:27:51.748Z,23.95
2022-12-29T15:30:20.084Z,27.23
2022-12-29T15:32:49.396Z,21.52
2022-12-29T15:35:38.596Z,35.00
2022-12-29T15:38:17.959Z,25.67
2022-12-29T15:40:46.216Z,26.65
2022-12-29T15:44:03.575Z,24.27
2022-12-29T15:46:34.288Z,27.98
2022-12-29T15:49:05.699Z,37.55
2022-12-29T15:51:38.609Z,26.35
2022-12-29T15:54:06.560Z,28.35
2022-12-29T15:56:34.488Z,23.85
2022-12-29T15:59:02.495Z,26.87
2022-12-29T16:01:33.004Z,38.03
2022-12-29T16:04:02.344Z,28.70
2022-12-29T16:06:46.024Z,23.62
2022-12-29T16:09:29.663Z,62.85
2022-12-29T16:12:01.045Z,42.08
2022-12-29T16:14:36.200Z,39.90
2022-12-29T16:17:07.943Z,52.10
2022-12-29T16:19:50.213Z,54.30
2022-12-29T16:22:28.855Z,56.85
2022-12-29T16:25:33.096Z,46.97
2022-12-29T16:28:02.009Z,40.25
2022-12-29T16:30:34.505Z,44.13
2022-12-29T16:33:06.725Z,45.28
2022-12-29T16:35:47.398Z,54.33
2022-12-29T16:38:18.042Z,45.20
2022-12-29T16:40:58.549Z,45.75
2022-12-29T16:43:34.518Z,43.55
2022-12-29T16:46:01.486Z,45.20
2022-12-29T16:48:34.010Z,42.45
2022-12-29T16:51:15.740Z,55.67
2022-12-29T16:53:50.636Z,46.33
2022-12-29T16:56:28.248Z,49.63
2022-12-29T16:59:09.028Z,50.42
2022-12-29T17:01:39.129Z,75.40
2022-12-29T17:04:10.008Z,80.28
2022-12-29T17:06:37.099Z,95.72
2022-12-29T17:09:06.565Z,113.37
2022-12-29T17:11:59.355Z,132.98
2022-12-29T17:14:50.764Z,104.90
2022-12-29T17:17:33.842Z,80.75
2022-12-29T17:20:24.724Z,83.28
2022-12-29T17:22:55.207Z,58.47
2022-12-29T17:25:28.694Z,56.65
2022-12-29T17:28:05.517Z,53.85
2022-12-29T17:30:36.443Z,29.42
2022-12-29T17:33:06.441Z,35.25
2022-12-29T17:35:33.475Z,42.92
2022-12-29T17:38:01.081Z,48.10
2022-12-29T17:40:32.490Z,40.17
2022-12-29T17:43:00.322Z,36.28
2022-12-29T17:45:32.410Z,39.55
2022-12-29T17:48:02.064Z,31.27
2022-12-29T17:50:31.366Z,34.92
2022-12-29T17:53:04.349Z,36.65
2022-12-29T17:55:37.612Z,39.88
2022-12-29T17:58:33.347Z,30.92
2022-12-29T18:01:02.650Z,32.20
2022-12-29T18:03:36.451Z,28.80
2022-12-29T18:06:06.865Z,35.38
2022-12-29T18:08:35.727Z,28.55
2022-12-29T18:11:02.926Z,29.30
2022-12-29T18:13:41.865Z,29.35
2022-12-29T18:16:12.900Z,33.97
2022-12-29T18:18:39.839Z,29.17
2022-12-29T18:21:07.253Z,27.17
2022-12-29T18:23:37.219Z,27.08
2022-12-29T18:26:28.061Z,34.35
2022-12-29T18:28:59.631Z,36.50
2022-12-29T18:31:29.139Z,33.95
2022-12-29T18:33:58.297Z,26.20
2022-12-29T18:36:26.097Z,26.50
2022-12-29T18:38:54.968Z,27.58
2022-12-29T18:41:30.032Z,24.47
2022-12-29T18:43:58.055Z,29.55
2022-12-29T18:46:25.043Z,26.80
2022-12-29T18:48:53.563Z,28.17
2022-12-29T18:51:23.091Z,24.12
2022-12-29T18:53:51.076Z,24.63
2022-12-29T18:56:18.193Z,24.75
2022-12-29T18:58:45.196Z,28.95
2022-12-29T19:01:28.348Z,41.10
2022-12-29T19:03:55.660Z,62.40
2022-12-29T19:06:23.246Z,70.75
2022-12-29T19:08:50.249Z,53.40
2022-12-29T19:11:18.031Z,49.42
2022-12-29T19:13:45.153Z,54.55
2022-12-29T19:16:21.235Z,49.05
2022-12-29T19:19:08.841Z,64.68
2022-12-29T19:21:37.343Z,70.87
2022-12-29T19:24:04.623Z,69.25
2022-12-29T19:26:36.278Z,75.22
2022-12-29T19:29:04.505Z,59.88
2022-12-29T19:31:31.720Z,52.35
2022-12-29T19:34:01.184Z,51.28
2022-12-29T19:36:29.489Z,45.88
2022-12-29T19:38:56.540Z,43.70
2022-12-29T19:41:24.081Z,42.33
2022-12-29T19:43:51.270Z,34.05
2022-12-29T19:46:19.706Z,37.47
2022-12-29T19:48:49.338Z,42.85
2022-12-29T19:51:17.521Z,63.60
2022-12-29T19:53:46.268Z,41.25
2022-12-29T19:56:13.977Z,43.63
2022-12-29T19:58:46.600Z,55.38
2022-12-29T20:01:20.938Z,65.62
2022-12-29T20:03:49.358Z,52.72
2022-12-29T20:06:16.868Z,69.00
2022-12-29T20:08:44.114Z,55.35
2022-12-29T20:11:17.454Z,66.80
2022-12-29T20:13:45.047Z,59.95
2022-12-29T20:16:15.000Z,62.08
2022-12-29T20:18:42.629Z,65.72
2022-12-29T20:21:16.792Z,90.50
2022-12-29T20:23:45.386Z,98.87
2022-12-29T20:26:22.340Z,101.37
2022-12-29T20:28:50.590Z,103.18
2022-12-29T20:31:23.654Z,93.85
2022-12-29T20:33:51.083Z,105.45
2022-12-29T20:36:22.472Z,119.18
2022-12-29T20:38:50.121Z,116.10
2022-12-29T20:41:18.019Z,84.03
2022-12-29T20:43:45.600Z,98.30
2022-12-29T20:46:19.563Z,95.62
2022-12-29T20:48:48.925Z,105.97
2022-12-29T20:51:15.971Z,92.37
2022-12-29T20:53:42.940Z,92.20
2022-12-29T20:56:19.369Z,96.53
2022-12-29T20:59:17.626Z,97.32
2022-12-29T21:01:34.005Z,98.22
2022-12-29T21:04:01.160Z,92.95
2022-12-29T21:06:28.232Z,102.60
2022-12-29T21:08:55.526Z,103.47
2022-12-29T21:11:22.825Z,118.87
2022-12-29T21:13:50.205Z,105.53
2022-12-29T21:16:21.427Z,141.57
2022-12-29T21:18:51.934Z,110.72
2022-12-29T21:21:26.346Z,94.20
2022-12-29T21:23:55.114Z,98.85
2022-12-29T21:26:24.400Z,98.05
2022-12-29T21:28:51.493Z,98.12
2022-12-29T21:31:30.878Z,106.45
2022-12-29T21:33:58.523Z,95.68
2022-12-29T21:36:25.910Z,98.05
2022-12-29T21:38:53.212Z,97.37
2022-12-29T21:41:20.687Z,107.37
2022-12-29T21:44:07.174Z,89.78
2022-12-29T21:46:35.881Z,110.35
2022-12-29T21:49:04.691Z,86.60
2022-12-29T21:51:50.453Z,94.18
2022-12-29T21:54:41.181Z,99.45
2022-12-29T21:57:08.357Z,68.78
2022-12-29T21:59:57.031Z,53.28
2022-12-29T22:02:45.389Z,44.38
2022-12-29T22:05:33.400Z,40.30
2022-12-29T22:08:21.045Z,53.05
2022-12-29T22:11:07.497Z,53.90
2022-12-29T22:13:39.577Z,56.17
2022-12-29T22:16:09.690Z,66.22
2022-12-29T22:18:37.615Z,43.67
2022-12-29T22:21:06.323Z,47.33
2022-12-29T22:23:33.380Z,41.08
2022-12-29T22:26:08.659Z,57.70
2022-12-29T22:28:40.148Z,64.28
2022-12-29T22:31:25.401Z,72.95
2022-12-29T22:34:11.351Z,69.90
2022-12-29T22:36:39.386Z,77.03
2022-12-29T22:39:06.278Z,68.47
2022-12-29T22:41:33.319Z,73.95
2022-12-29T22:44:00.406Z,64.85
2022-12-29T22:46:28.121Z,55.90
2022-12-29T22:48:57.130Z,55.53
2022-12-29T22:51:26.498Z,56.90
2022-12-29T22:53:53.710Z,62.83
2022-12-29T22:56:24.819Z,248.32
2022-12-29T22:58:51.836Z,353.05
2022-12-29T23:01:22.787Z,265.60
2022-12-29T23:03:50.132Z,40.55
2022-12-29T23:06:17.819Z,38.75
2022-12-29T23:08:45.323Z,47.70
2022-12-29T23:11:13.390Z,45.78
2022-12-29T23:13:41.450Z,41.95
2022-12-29T23:16:08.882Z,42.38
2022-12-29T23:18:36.336Z,39.63
2022-12-29T23:21:03.513Z,33.70
2022-12-29T23:23:49.899Z,42.62
2022-12-29T23:26:21.005Z,37.47
2022-12-29T23:28:48.943Z,38.28
2022-12-29T23:31:16.831Z,48.08
2022-12-29T23:33:44.279Z,47.00
2022-12-29T23:36:12.515Z,49.28
2022-12-29T23:38:39.569Z,41.42
2022-12-29T23:41:06.833Z,39.90
2022-12-29T23:43:34.244Z,59.20
2022-12-29T23:46:18.838Z,46.28
2022-12-29T23:48:46.333Z,47.70
2022-12-29T23:51:13.726Z,44.53
2022-12-29T23:53:42.416Z,42.15
2022-12-29T23:56:13.626Z,57.42
2022-12-29T23:58:40.535Z,67.07
